sensor_id;sensor_type;location;lat;lon;timestamp;pressure;altitude;pressure_sealevel;temperature;humidity
11077;BME280;5591;42.626;23.380;2023-04-27T00:01:29;93884.22;;;9.45;76.16
11077;BME280;5591;42.626;23.380;2023-04-27T00:03:57;93875.09;;;9.13;77.26
11077;BME280;5591;42.626;23.380;2023-04-27T00:06:24;93912.09;;;9.10;76.50
11077;BME280;5591;42.626;23.380;2023-04-27T00:08:53;93881.03;;;9.22;76.17
11077;BME280;5591;42.626;23.380;2023-04-27T00:11:20;93873.47;;;9.12;77.27
11077;BME280;5591;42.626;23.380;2023-04-27T00:13:46;93890.78;;;9.13;77.79
11077;BME280;5591;42.626;23.380;2023-04-27T00:16:13;93885.38;;;9.15;78.02
11077;BME280;5591;42.626;23.380;2023-04-27T00:18:40;93887.63;;;8.97;79.23
11077;BME280;5591;42.626;23.380;2023-04-27T00:21:07;93896.97;;;9.27;77.23
11077;BME280;5591;42.626;23.380;2023-04-27T00:23:34;93880.59;;;9.18;77.89
11077;BME280;5591;42.626;23.380;2023-04-27T00:26:02;93892.16;;;9.09;76.74
11077;BME280;5591;42.626;23.380;2023-04-27T00:28:29;93881.31;;;8.91;77.63
11077;BME280;5591;42.626;23.380;2023-04-27T00:30:56;93872.19;;;9.02;76.45
11077;BME280;5591;42.626;23.380;2023-04-27T00:33:23;93898.41;;;8.87;77.43
11077;BME280;5591;42.626;23.380;2023-04-27T00:35:49;93881.44;;;8.62;78.50
11077;BME280;5591;42.626;23.380;2023-04-27T00:38:16;93885.56;;;8.92;78.20
11077;BME280;5591;42.626;23.380;2023-04-27T00:40:43;93884.38;;;8.95;76.08
11077;BME280;5591;42.626;23.380;2023-04-27T00:43:11;93889.66;;;9.22;75.65
11077;BME280;5591;42.626;23.380;2023-04-27T00:45:40;93891.25;;;8.60;78.90
11077;BME280;5591;42.626;23.380;2023-04-27T00:48:07;93927.34;;;8.50;80.44
11077;BME280;5591;42.626;23.380;2023-04-27T00:50:35;93915.03;;;8.30;80.25
11077;BME280;5591;42.626;23.380;2023-04-27T00:53:04;93901.00;;;8.66;80.55
11077;BME280;5591;42.626;23.380;2023-04-27T00:55:31;93912.31;;;8.52;80.86
11077;BME280;5591;42.626;23.380;2023-04-27T00:57:58;93898.59;;;8.50;81.03
11077;BME280;5591;42.626;23.380;2023-04-27T01:00:26;93893.47;;;8.42;80.50
11077;BME280;5591;42.626;23.380;2023-04-27T01:02:54;93913.31;;;8.72;80.57
11077;BME280;5591;42.626;23.380;2023-04-27T01:05:21;93907.00;;;8.67;79.18
11077;BME280;5591;42.626;23.380;2023-04-27T01:07:48;93919.72;;;8.20;82.83
11077;BME280;5591;42.626;23.380;2023-04-27T01:10:15;93827.09;;;7.93;80.97
11077;BME280;5591;42.626;23.380;2023-04-27T01:12:42;93907.56;;;8.27;82.05
11077;BME280;5591;42.626;23.380;2023-04-27T01:15:10;93910.50;;;8.38;81.19
11077;BME280;5591;42.626;23.380;2023-04-27T01:17:38;93808.38;;;7.75;81.05
11077;BME280;5591;42.626;23.380;2023-04-27T01:20:06;93910.44;;;8.32;81.89
11077;BME280;5591;42.626;23.380;2023-04-27T01:22:35;93916.47;;;8.32;82.26
11077;BME280;5591;42.626;23.380;2023-04-27T01:25:03;93915.53;;;8.54;81.35
11077;BME280;5591;42.626;23.380;2023-04-27T01:27:31;93915.31;;;8.06;83.51
11077;BME280;5591;42.626;23.380;2023-04-27T01:29:58;93911.41;;;8.45;81.29
11077;BME280;5591;42.626;23.380;2023-04-27T01:32:25;93923.47;;;8.17;82.11
11077;BME280;5591;42.626;23.380;2023-04-27T01:34:51;93916.19;;;8.27;81.99
11077;BME280;5591;42.626;23.380;2023-04-27T01:37:18;93920.31;;;8.07;83.48
11077;BME280;5591;42.626;23.380;2023-04-27T01:39:45;93916.84;;;8.15;83.20
11077;BME280;5591;42.626;23.380;2023-04-27T01:42:13;93928.63;;;7.96;84.07
11077;BME280;5591;42.626;23.380;2023-04-27T01:44:40;93916.56;;;8.24;82.32
11077;BME280;5591;42.626;23.380;2023-04-27T01:47:07;93920.16;;;8.09;83.18
11077;BME280;5591;42.626;23.380;2023-04-27T01:49:33;93923.22;;;8.12;82.75
11077;BME280;5591;42.626;23.380;2023-04-27T01:52:00;93929.97;;;8.07;81.15
11077;BME280;5591;42.626;23.380;2023-04-27T01:54:27;93938.28;;;7.96;82.16
11077;BME280;5591;42.626;23.380;2023-04-27T01:56:54;93923.94;;;8.06;83.00
11077;BME280;5591;42.626;23.380;2023-04-27T01:59:24;93924.47;;;7.87;81.61
11077;BME280;5591;42.626;23.380;2023-04-27T02:01:51;93925.56;;;8.07;79.84
11077;BME280;5591;42.626;23.380;2023-04-27T02:04:17;93926.00;;;8.11;81.61
11077;BME280;5591;42.626;23.380;2023-04-27T02:06:45;93939.59;;;8.06;80.56
11077;BME280;5591;42.626;23.380;2023-04-27T02:09:12;93932.88;;;7.83;81.69
11077;BME280;5591;42.626;23.380;2023-04-27T02:11:39;93935.81;;;7.94;80.55
11077;BME280;5591;42.626;23.380;2023-04-27T02:14:05;93939.88;;;7.82;82.13
11077;BME280;5591;42.626;23.380;2023-04-27T02:16:34;93949.88;;;7.93;81.00
11077;BME280;5591;42.626;23.380;2023-04-27T02:19:00;93955.81;;;8.02;80.26
11077;BME280;5591;42.626;23.380;2023-04-27T02:21:27;93940.13;;;7.87;81.09
11077;BME280;5591;42.626;23.380;2023-04-27T02:23:54;93936.66;;;8.09;79.37
11077;BME280;5591;42.626;23.380;2023-04-27T02:26:21;93938.34;;;8.02;79.91
11077;BME280;5591;42.626;23.380;2023-04-27T02:28:53;93929.34;;;8.19;77.99
11077;BME280;5591;42.626;23.380;2023-04-27T02:31:20;93937.72;;;7.86;80.24
11077;BME280;5591;42.626;23.380;2023-04-27T02:33:49;93889.25;;;7.83;79.84
11077;BME280;5591;42.626;23.380;2023-04-27T02:36:15;93933.94;;;8.03;79.75
11077;BME280;5591;42.626;23.380;2023-04-27T02:38:43;93946.28;;;7.94;79.06
11077;BME280;5591;42.626;23.380;2023-04-27T02:41:09;93938.22;;;7.67;81.39
11077;BME280;5591;42.626;23.380;2023-04-27T02:43:36;93927.53;;;8.05;79.06
11077;BME280;5591;42.626;23.380;2023-04-27T02:46:03;93916.00;;;7.85;78.07
11077;BME280;5591;42.626;23.380;2023-04-27T02:48:30;93934.25;;;8.22;77.52
11077;BME280;5591;42.626;23.380;2023-04-27T02:51:01;93931.53;;;8.30;76.92
11077;BME280;5591;42.626;23.380;2023-04-27T02:53:28;93925.56;;;8.07;77.48
11077;BME280;5591;42.626;23.380;2023-04-27T02:55:55;93926.22;;;8.24;77.33
11077;BME280;5591;42.626;23.380;2023-04-27T02:58:22;93936.75;;;8.01;78.84
11077;BME280;5591;42.626;23.380;2023-04-27T03:00:53;93959.03;;;7.60;79.81
11077;BME280;5591;42.626;23.380;2023-04-27T03:03:20;93953.63;;;7.76;78.04
11077;BME280;5591;42.626;23.380;2023-04-27T03:05:46;93950.84;;;7.78;78.59
11077;BME280;5591;42.626;23.380;2023-04-27T03:08:15;93941.97;;;8.16;76.57
11077;BME280;5591;42.626;23.380;2023-04-27T03:10:41;93957.34;;;7.82;78.12
11077;BME280;5591;42.626;23.380;2023-04-27T03:13:08;93944.94;;;7.98;76.54
11077;BME280;5591;42.626;23.380;2023-04-27T03:15:35;93955.06;;;7.64;78.34
11077;BME280;5591;42.626;23.380;2023-04-27T03:18:02;93955.81;;;8.02;76.73
11077;BME280;5591;42.626;23.380;2023-04-27T03:20:29;93962.97;;;8.08;76.24
11077;BME280;5591;42.626;23.380;2023-04-27T03:22:56;93953.94;;;7.81;77.79
11077;BME280;5591;42.626;23.380;2023-04-27T03:25:24;93955.94;;;7.94;77.69
11077;BME280;5591;42.626;23.380;2023-04-27T03:27:51;93963.34;;;8.19;75.52
11077;BME280;5591;42.626;23.380;2023-04-27T03:30:18;93970.75;;;7.79;76.68
11077;BME280;5591;42.626;23.380;2023-04-27T03:32:45;93957.44;;;8.03;76.40
11077;BME280;5591;42.626;23.380;2023-04-27T03:35:11;93972.59;;;8.07;77.00
11077;BME280;5591;42.626;23.380;2023-04-27T03:37:38;93965.47;;;8.01;77.11
11077;BME280;5591;42.626;23.380;2023-04-27T03:40:06;93979.13;;;7.74;78.79
11077;BME280;5591;42.626;23.380;2023-04-27T03:42:34;93972.13;;;7.89;77.96
11077;BME280;5591;42.626;23.380;2023-04-27T03:45:01;93974.09;;;7.87;77.86
11077;BME280;5591;42.626;23.380;2023-04-27T03:47:28;93981.69;;;7.45;78.77
11077;BME280;5591;42.626;23.380;2023-04-27T03:49:55;93983.63;;;7.66;79.08
11077;BME280;5591;42.626;23.380;2023-04-27T03:52:22;93981.75;;;7.89;77.43
11077;BME280;5591;42.626;23.380;2023-04-27T03:54:48;93975.00;;;7.94;76.67
11077;BME280;5591;42.626;23.380;2023-04-27T03:57:15;93974.47;;;7.47;76.39
11077;BME280;5591;42.626;23.380;2023-04-27T03:59:43;93987.53;;;7.99;76.42
11077;BME280;5591;42.626;23.380;2023-04-27T04:02:10;94007.78;;;7.82;74.63
11077;BME280;5591;42.626;23.380;2023-04-27T04:04:37;93994.16;;;8.24;74.10
11077;BME280;5591;42.626;23.380;2023-04-27T04:07:04;93999.28;;;7.66;75.29
11077;BME280;5591;42.626;23.380;2023-04-27T04:09:30;94008.19;;;8.08;73.58
11077;BME280;5591;42.626;23.380;2023-04-27T04:11:57;94012.22;;;7.96;71.76
11077;BME280;5591;42.626;23.380;2023-04-27T04:14:24;94010.44;;;7.97;72.29
11077;BME280;5591;42.626;23.380;2023-04-27T04:16:52;94011.53;;;8.02;72.25
11077;BME280;5591;42.626;23.380;2023-04-27T04:19:19;94026.22;;;8.03;71.41
11077;BME280;5591;42.626;23.380;2023-04-27T04:21:45;94026.63;;;8.58;69.82
11077;BME280;5591;42.626;23.380;2023-04-27T04:24:12;94022.34;;;8.14;71.35
11077;BME280;5591;42.626;23.380;2023-04-27T04:26:40;94029.97;;;8.01;71.88
11077;BME280;5591;42.626;23.380;2023-04-27T04:29:07;94026.91;;;8.34;69.12
11077;BME280;5591;42.626;23.380;2023-04-27T04:31:34;94023.84;;;8.31;70.06
11077;BME280;5591;42.626;23.380;2023-04-27T04:34:02;94034.13;;;8.32;71.41
11077;BME280;5591;42.626;23.380;2023-04-27T04:36:30;94033.75;;;8.79;68.85
11077;BME280;5591;42.626;23.380;2023-04-27T04:38:57;94025.91;;;9.14;68.26
11077;BME280;5591;42.626;23.380;2023-04-27T04:41:23;94052.06;;;8.50;68.58
11077;BME280;5591;42.626;23.380;2023-04-27T04:43:50;94051.94;;;7.92;71.01
11077;BME280;5591;42.626;23.380;2023-04-27T04:46:17;94053.78;;;8.06;70.73
11077;BME280;5591;42.626;23.380;2023-04-27T04:48:44;94049.81;;;8.47;68.89
11077;BME280;5591;42.626;23.380;2023-04-27T04:51:13;94047.00;;;8.63;66.89
11077;BME280;5591;42.626;23.380;2023-04-27T04:53:40;94087.25;;;8.62;67.76
11077;BME280;5591;42.626;23.380;2023-04-27T04:56:11;94050.53;;;8.55;67.11
11077;BME280;5591;42.626;23.380;2023-04-27T04:58:38;94067.13;;;8.62;67.36
11077;BME280;5591;42.626;23.380;2023-04-27T05:01:05;94022.94;;;8.38;67.92
11077;BME280;5591;42.626;23.380;2023-04-27T05:03:32;94071.00;;;8.52;67.77
11077;BME280;5591;42.626;23.380;2023-04-27T05:05:58;94085.09;;;8.65;66.33
11077;BME280;5591;42.626;23.380;2023-04-27T05:08:27;93948.84;;;7.65;68.45
11077;BME280;5591;42.626;23.380;2023-04-27T05:10:53;94068.00;;;9.13;65.66
11077;BME280;5591;42.626;23.380;2023-04-27T05:13:21;94079.75;;;8.44;66.38
11077;BME280;5591;42.626;23.380;2023-04-27T05:15:49;94076.41;;;8.50;66.82
11077;BME280;5591;42.626;23.380;2023-04-27T05:18:16;94117.38;;;8.58;66.59
11077;BME280;5591;42.626;23.380;2023-04-27T05:20:42;94072.88;;;8.87;65.61
11077;BME280;5591;42.626;23.380;2023-04-27T05:23:09;94080.94;;;9.21;64.51
11077;BME280;5591;42.626;23.380;2023-04-27T05:25:37;94082.56;;;8.86;65.59
11077;BME280;5591;42.626;23.380;2023-04-27T05:28:06;94084.78;;;8.75;64.79
11077;BME280;5591;42.626;23.380;2023-04-27T05:30:34;94087.34;;;8.83;66.89
11077;BME280;5591;42.626;23.380;2023-04-27T05:33:01;94082.69;;;9.14;63.91
11077;BME280;5591;42.626;23.380;2023-04-27T05:35:28;94091.41;;;9.00;65.21
11077;BME280;5591;42.626;23.380;2023-04-27T05:37:55;94083.22;;;9.24;65.38
11077;BME280;5591;42.626;23.380;2023-04-27T05:40:22;94081.84;;;9.28;64.10
11077;BME280;5591;42.626;23.380;2023-04-27T05:42:50;94084.53;;;9.70;62.64
11077;BME280;5591;42.626;23.380;2023-04-27T05:45:17;94086.84;;;9.23;63.29
11077;BME280;5591;42.626;23.380;2023-04-27T05:47:44;94120.44;;;8.76;65.78
11077;BME280;5591;42.626;23.380;2023-04-27T05:50:11;94075.97;;;9.40;65.88
11077;BME280;5591;42.626;23.380;2023-04-27T05:52:37;94068.66;;;9.36;63.34
11077;BME280;5591;42.626;23.380;2023-04-27T05:55:06;94091.72;;;9.11;65.21
11077;BME280;5591;42.626;23.380;2023-04-27T05:57:33;94098.66;;;9.04;65.12
11077;BME280;5591;42.626;23.380;2023-04-27T06:00:01;94081.00;;;9.06;65.39
11077;BME280;5591;42.626;23.380;2023-04-27T06:02:31;94080.59;;;9.38;64.66
11077;BME280;5591;42.626;23.380;2023-04-27T06:04:58;94081.53;;;9.16;64.00
11077;BME280;5591;42.626;23.380;2023-04-27T06:07:25;94071.16;;;8.94;65.08
11077;BME280;5591;42.626;23.380;2023-04-27T06:09:51;94098.41;;;8.70;67.51
11077;BME280;5591;42.626;23.380;2023-04-27T06:12:18;94091.31;;;9.29;65.13
11077;BME280;5591;42.626;23.380;2023-04-27T06:14:45;94095.13;;;9.62;63.62
11077;BME280;5591;42.626;23.380;2023-04-27T06:17:13;94085.88;;;9.80;62.92
11077;BME280;5591;42.626;23.380;2023-04-27T06:19:40;94087.72;;;9.30;63.75
11077;BME280;5591;42.626;23.380;2023-04-27T06:22:07;94099.59;;;9.82;62.58
11077;BME280;5591;42.626;23.380;2023-04-27T06:24:35;94087.03;;;9.07;65.18
11077;BME280;5591;42.626;23.380;2023-04-27T06:27:02;94099.03;;;8.87;65.88
11077;BME280;5591;42.626;23.380;2023-04-27T06:29:29;94082.22;;;9.60;64.37
11077;BME280;5591;42.626;23.380;2023-04-27T06:31:56;94081.13;;;9.69;64.15
11077;BME280;5591;42.626;23.380;2023-04-27T06:34:24;94090.69;;;9.27;64.56
11077;BME280;5591;42.626;23.380;2023-04-27T06:36:51;94098.50;;;9.56;65.40
11077;BME280;5591;42.626;23.380;2023-04-27T06:39:18;94096.13;;;9.81;64.50
11077;BME280;5591;42.626;23.380;2023-04-27T06:41:45;94097.66;;;10.11;62.82
11077;BME280;5591;42.626;23.380;2023-04-27T06:44:11;94103.38;;;10.42;60.80
11077;BME280;5591;42.626;23.380;2023-04-27T06:46:38;94094.00;;;10.06;61.60
11077;BME280;5591;42.626;23.380;2023-04-27T06:49:05;94094.34;;;9.82;62.93
11077;BME280;5591;42.626;23.380;2023-04-27T06:51:33;94081.34;;;10.37;61.46
11077;BME280;5591;42.626;23.380;2023-04-27T06:54:00;93998.53;;;9.52;59.82
11077;BME280;5591;42.626;23.380;2023-04-27T06:56:28;94089.00;;;9.90;61.04
11077;BME280;5591;42.626;23.380;2023-04-27T06:58:55;94090.28;;;10.76;60.70
11077;BME280;5591;42.626;23.380;2023-04-27T07:01:21;94102.97;;;10.18;60.05
11077;BME280;5591;42.626;23.380;2023-04-27T07:03:48;94089.25;;;10.71;59.45
11077;BME280;5591;42.626;23.380;2023-04-27T07:06:15;94103.34;;;10.63;58.20
11077;BME280;5591;42.626;23.380;2023-04-27T07:08:43;94088.50;;;10.22;59.58
11077;BME280;5591;42.626;23.380;2023-04-27T07:11:11;94093.88;;;11.03;58.94
11077;BME280;5591;42.626;23.380;2023-04-27T07:13:38;94047.25;;;10.37;58.87
11077;BME280;5591;42.626;23.380;2023-04-27T07:16:05;94097.66;;;10.60;58.89
11077;BME280;5591;42.626;23.380;2023-04-27T07:18:32;94082.13;;;10.92;58.83
11077;BME280;5591;42.626;23.380;2023-04-27T07:20:59;94052.16;;;11.21;56.81
11077;BME280;5591;42.626;23.380;2023-04-27T07:23:26;94081.53;;;11.44;56.89
11077;BME280;5591;42.626;23.380;2023-04-27T07:25:54;94086.84;;;11.10;56.64
11077;BME280;5591;42.626;23.380;2023-04-27T07:28:21;94082.38;;;11.04;57.42
11077;BME280;5591;42.626;23.380;2023-04-27T07:30:48;94063.03;;;11.65;55.71
11077;BME280;5591;42.626;23.380;2023-04-27T07:33:15;94060.22;;;11.66;55.34
11077;BME280;5591;42.626;23.380;2023-04-27T07:35:42;94078.75;;;11.05;55.46
11077;BME280;5591;42.626;23.380;2023-04-27T07:38:09;94089.69;;;11.55;55.62
11077;BME280;5591;42.626;23.380;2023-04-27T07:40:36;94089.34;;;11.65;54.79
11077;BME280;5591;42.626;23.380;2023-04-27T07:43:04;94116.66;;;11.30;54.64
11077;BME280;5591;42.626;23.380;2023-04-27T07:45:31;94092.91;;;11.51;54.93
11077;BME280;5591;42.626;23.380;2023-04-27T07:47:58;94081.53;;;12.30;53.15
11077;BME280;5591;42.626;23.380;2023-04-27T07:50:26;94076.47;;;12.02;53.36
11077;BME280;5591;42.626;23.380;2023-04-27T07:52:54;94063.13;;;12.10;53.21
11077;BME280;5591;42.626;23.380;2023-04-27T07:55:22;94079.50;;;12.77;51.51
11077;BME280;5591;42.626;23.380;2023-04-27T07:57:50;94086.59;;;12.83;50.70
11077;BME280;5591;42.626;23.380;2023-04-27T08:00:19;94080.66;;;13.20;50.31
11077;BME280;5591;42.626;23.380;2023-04-27T08:02:46;94071.34;;;13.11;50.24
11077;BME280;5591;42.626;23.380;2023-04-27T08:05:13;94072.34;;;13.16;49.96
11077;BME280;5591;42.626;23.380;2023-04-27T08:07:40;94079.31;;;12.39;50.66
11077;BME280;5591;42.626;23.380;2023-04-27T08:10:07;94093.72;;;12.56;50.54
11077;BME280;5591;42.626;23.380;2023-04-27T08:12:34;94080.66;;;13.13;50.17
11077;BME280;5591;42.626;23.380;2023-04-27T08:15:01;94079.53;;;12.64;51.13
11077;BME280;5591;42.626;23.380;2023-04-27T08:17:29;94079.69;;;12.69;50.30
11077;BME280;5591;42.626;23.380;2023-04-27T08:19:56;94032.31;;;12.69;49.18
11077;BME280;5591;42.626;23.380;2023-04-27T08:22:22;94041.28;;;12.42;50.61
11077;BME280;5591;42.626;23.380;2023-04-27T08:24:49;94072.16;;;12.92;50.17
11077;BME280;5591;42.626;23.380;2023-04-27T08:27:16;94076.88;;;12.70;49.62
11077;BME280;5591;42.626;23.380;2023-04-27T08:29:46;94069.16;;;11.85;50.93
11077;BME280;5591;42.626;23.380;2023-04-27T08:32:13;94065.88;;;13.12;49.08
11077;BME280;5591;42.626;23.380;2023-04-27T08:34:42;94085.34;;;12.85;49.66
11077;BME280;5591;42.626;23.380;2023-04-27T08:37:10;94049.72;;;12.70;49.60
11077;BME280;5591;42.626;23.380;2023-04-27T08:39:37;94027.00;;;13.01;48.88
11077;BME280;5591;42.626;23.380;2023-04-27T08:42:13;94087.78;;;13.00;49.26
11077;BME280;5591;42.626;23.380;2023-04-27T08:44:41;94079.09;;;12.99;49.86
11077;BME280;5591;42.626;23.380;2023-04-27T08:47:08;94077.13;;;14.20;48.34
11077;BME280;5591;42.626;23.380;2023-04-27T08:49:35;94058.78;;;13.94;47.34
11077;BME280;5591;42.626;23.380;2023-04-27T08:52:13;94085.56;;;13.98;47.70
11077;BME280;5591;42.626;23.380;2023-04-27T08:54:40;94081.66;;;13.19;48.99
11077;BME280;5591;42.626;23.380;2023-04-27T08:57:09;94088.44;;;13.46;49.29
11077;BME280;5591;42.626;23.380;2023-04-27T08:59:36;94080.38;;;14.16;47.75
11077;BME280;5591;42.626;23.380;2023-04-27T09:02:03;94077.13;;;14.51;46.99
11077;BME280;5591;42.626;23.380;2023-04-27T09:04:37;94084.50;;;13.68;48.56
11077;BME280;5591;42.626;23.380;2023-04-27T09:07:12;94078.34;;;13.36;48.01
11077;BME280;5591;42.626;23.380;2023-04-27T09:09:39;94068.66;;;13.74;48.31
11077;BME280;5591;42.626;23.380;2023-04-27T09:12:13;94077.84;;;13.65;47.06
11077;BME280;5591;42.626;23.380;2023-04-27T09:14:40;94078.13;;;14.50;47.14
11077;BME280;5591;42.626;23.380;2023-04-27T09:17:08;94069.81;;;13.85;47.55
11077;BME280;5591;42.626;23.380;2023-04-27T09:19:35;94066.22;;;13.29;48.10
11077;BME280;5591;42.626;23.380;2023-04-27T09:22:03;94067.91;;;14.60;46.34
11077;BME280;5591;42.626;23.380;2023-04-27T09:24:32;94068.84;;;14.41;45.56
11077;BME280;5591;42.626;23.380;2023-04-27T09:26:59;94080.50;;;13.59;46.17
11077;BME280;5591;42.626;23.380;2023-04-27T09:29:34;94065.72;;;13.95;46.52
11077;BME280;5591;42.626;23.380;2023-04-27T09:32:01;94061.06;;;14.95;45.35
11077;BME280;5591;42.626;23.380;2023-04-27T09:34:38;94070.09;;;14.39;45.28
11077;BME280;5591;42.626;23.380;2023-04-27T09:37:06;94088.75;;;14.44;45.48
11077;BME280;5591;42.626;23.380;2023-04-27T09:39:34;94058.28;;;14.10;46.35
11077;BME280;5591;42.626;23.380;2023-04-27T09:42:02;94051.84;;;14.37;45.92
11077;BME280;5591;42.626;23.380;2023-04-27T09:44:30;94047.44;;;14.74;44.87
11077;BME280;5591;42.626;23.380;2023-04-27T09:47:00;94047.31;;;14.13;45.34
11077;BME280;5591;42.626;23.380;2023-04-27T09:49:27;94034.72;;;15.24;44.09
11077;BME280;5591;42.626;23.380;2023-04-27T09:51:55;94033.94;;;14.82;44.06
11077;BME280;5591;42.626;23.380;2023-04-27T09:54:25;94037.69;;;15.34;43.65
11077;BME280;5591;42.626;23.380;2023-04-27T09:57:02;94042.19;;;14.49;44.67
11077;BME280;5591;42.626;23.380;2023-04-27T09:59:52;94041.09;;;14.32;44.45
11077;BME280;5591;42.626;23.380;2023-04-27T10:02:22;94028.81;;;15.04;43.96
11077;BME280;5591;42.626;23.380;2023-04-27T10:05:25;94027.59;;;14.47;44.80
11077;BME280;5591;42.626;23.380;2023-04-27T10:07:54;94039.88;;;14.59;44.13
11077;BME280;5591;42.626;23.380;2023-04-27T10:10:21;94034.44;;;15.32;43.15
11077;BME280;5591;42.626;23.380;2023-04-27T10:13:00;94032.75;;;15.02;43.55
11077;BME280;5591;42.626;23.380;2023-04-27T10:15:28;94038.78;;;14.67;43.75
11077;BME280;5591;42.626;23.380;2023-04-27T10:17:55;93998.59;;;14.40;44.17
11077;BME280;5591;42.626;23.380;2023-04-27T10:20:30;94024.50;;;14.92;43.39
11077;BME280;5591;42.626;23.380;2023-04-27T10:22:58;94033.25;;;14.26;43.88
11077;BME280;5591;42.626;23.380;2023-04-27T10:25:26;94024.34;;;14.45;43.60
11077;BME280;5591;42.626;23.380;2023-04-27T10:27:55;94032.53;;;14.06;42.94
11077;BME280;5591;42.626;23.380;2023-04-27T10:30:26;94032.38;;;14.56;44.03
11077;BME280;5591;42.626;23.380;2023-04-27T10:32:58;94018.38;;;14.31;44.19
11077;BME280;5591;42.626;23.380;2023-04-27T10:35:34;94041.81;;;14.88;43.54
11077;BME280;5591;42.626;23.380;2023-04-27T10:38:05;94036.16;;;14.42;43.93
11077;BME280;5591;42.626;23.380;2023-04-27T10:40:33;94026.22;;;14.62;43.68
11077;BME280;5591;42.626;23.380;2023-04-27T10:43:07;94039.28;;;14.33;43.92
11077;BME280;5591;42.626;23.380;2023-04-27T10:45:35;94028.03;;;15.22;42.45
11077;BME280;5591;42.626;23.380;2023-04-27T10:48:02;94032.13;;;15.54;42.25
11077;BME280;5591;42.626;23.380;2023-04-27T10:50:29;94029.25;;;16.44;41.05
11077;BME280;5591;42.626;23.380;2023-04-27T10:52:59;94014.59;;;16.30;40.95
11077;BME280;5591;42.626;23.380;2023-04-27T10:55:27;94018.38;;;15.93;40.89
11077;BME280;5591;42.626;23.380;2023-04-27T10:57:55;94036.72;;;16.06;40.86
11077;BME280;5591;42.626;23.380;2023-04-27T11:00:23;94037.28;;;15.13;41.92
11077;BME280;5591;42.626;23.380;2023-04-27T11:02:53;94031.84;;;14.48;42.45
11077;BME280;5591;42.626;23.380;2023-04-27T11:05:21;94018.47;;;15.57;41.99
11077;BME280;5591;42.626;23.380;2023-04-27T11:07:49;94019.88;;;15.23;42.07
11077;BME280;5591;42.626;23.380;2023-04-27T11:10:17;94019.84;;;15.59;42.00
11077;BME280;5591;42.626;23.380;2023-04-27T11:12:45;94021.16;;;15.39;42.90
11077;BME280;5591;42.626;23.380;2023-04-27T11:15:12;94030.06;;;16.03;40.86
11077;BME280;5591;42.626;23.380;2023-04-27T11:17:39;94041.97;;;15.29;41.20
11077;BME280;5591;42.626;23.380;2023-04-27T11:20:08;94014.91;;;16.22;40.82
11077;BME280;5591;42.626;23.380;2023-04-27T11:22:44;94060.69;;;16.11;39.49
11077;BME280;5591;42.626;23.380;2023-04-27T11:25:11;94037.00;;;15.39;40.99
11077;BME280;5591;42.626;23.380;2023-04-27T11:27:39;94032.75;;;15.02;41.05
11077;BME280;5591;42.626;23.380;2023-04-27T11:30:18;94030.44;;;15.05;40.93
11077;BME280;5591;42.626;23.380;2023-04-27T11:32:45;94033.53;;;15.02;41.49
11077;BME280;5591;42.626;23.380;2023-04-27T11:35:14;94010.66;;;14.54;41.86
11077;BME280;5591;42.626;23.380;2023-04-27T11:37:41;94043.97;;;13.93;42.97
11077;BME280;5591;42.626;23.380;2023-04-27T11:40:08;94026.28;;;14.31;42.98
11077;BME280;5591;42.626;23.380;2023-04-27T11:42:36;94021.25;;;15.62;41.25
11077;BME280;5591;42.626;23.380;2023-04-27T11:45:10;94030.69;;;15.04;42.54
11077;BME280;5591;42.626;23.380;2023-04-27T11:47:37;94037.97;;;14.66;43.03
11077;BME280;5591;42.626;23.380;2023-04-27T11:50:07;94028.59;;;15.30;42.26
11077;BME280;5591;42.626;23.380;2023-04-27T11:52:36;94026.81;;;15.42;41.53
11077;BME280;5591;42.626;23.380;2023-04-27T11:55:05;94035.31;;;15.08;41.65
11077;BME280;5591;42.626;23.380;2023-04-27T11:57:34;94042.13;;;15.52;41.50
11077;BME280;5591;42.626;23.380;2023-04-27T12:00:03;94028.03;;;15.04;41.63
11077;BME280;5591;42.626;23.380;2023-04-27T12:02:35;94046.97;;;15.19;41.96
11077;BME280;5591;42.626;23.380;2023-04-27T12:05:03;94033.53;;;15.86;41.50
11077;BME280;5591;42.626;23.380;2023-04-27T12:07:30;94037.00;;;15.57;41.66
11077;BME280;5591;42.626;23.380;2023-04-27T12:09:58;94041.53;;;15.97;41.54
11077;BME280;5591;42.626;23.380;2023-04-27T12:12:25;94038.88;;;15.97;40.63
11077;BME280;5591;42.626;23.380;2023-04-27T12:14:52;94050.81;;;15.23;41.35
11077;BME280;5591;42.626;23.380;2023-04-27T12:17:19;94062.28;;;15.35;40.89
11077;BME280;5591;42.626;23.380;2023-04-27T12:19:45;94044.06;;;14.42;42.31
11077;BME280;5591;42.626;23.380;2023-04-27T12:22:12;94057.34;;;14.36;42.94
11077;BME280;5591;42.626;23.380;2023-04-27T12:24:39;94027.97;;;14.50;42.89
11077;BME280;5591;42.626;23.380;2023-04-27T12:27:08;94055.16;;;14.75;42.82
11077;BME280;5591;42.626;23.380;2023-04-27T12:29:34;94045.16;;;14.35;43.32
11077;BME280;5591;42.626;23.380;2023-04-27T12:32:01;94049.50;;;14.47;43.48
11077;BME280;5591;42.626;23.380;2023-04-27T12:34:28;94051.41;;;14.83;42.39
11077;BME280;5591;42.626;23.380;2023-04-27T12:36:55;94057.53;;;15.19;41.75
11077;BME280;5591;42.626;23.380;2023-04-27T12:39:22;94053.19;;;14.89;41.35
11077;BME280;5591;42.626;23.380;2023-04-27T12:41:50;94049.09;;;15.10;41.69
11077;BME280;5591;42.626;23.380;2023-04-27T12:44:19;94054.47;;;15.22;41.65
11077;BME280;5591;42.626;23.380;2023-04-27T12:46:47;94082.00;;;14.72;42.34
11077;BME280;5591;42.626;23.380;2023-04-27T12:49:13;94045.72;;;14.06;43.66
11077;BME280;5591;42.626;23.380;2023-04-27T12:51:40;94048.44;;;14.55;43.34
11077;BME280;5591;42.626;23.380;2023-04-27T12:54:08;94075.44;;;14.99;42.77
11077;BME280;5591;42.626;23.380;2023-04-27T12:56:35;94078.09;;;14.57;42.88
11077;BME280;5591;42.626;23.380;2023-04-27T12:59:02;94060.53;;;14.87;43.09
11077;BME280;5591;42.626;23.380;2023-04-27T13:01:31;94057.25;;;14.91;43.37
11077;BME280;5591;42.626;23.380;2023-04-27T13:04:02;94059.69;;;14.68;42.92
11077;BME280;5591;42.626;23.380;2023-04-27T13:06:30;94055.50;;;15.03;42.31
11077;BME280;5591;42.626;23.380;2023-04-27T13:08:57;94053.66;;;14.37;43.39